Time;durP1;ratioP1;P1;durP2;ratioP2;P2;SDS_P1;SDS_P2;PMS_P1;PMS_P2;Temp;Humidity;BMP_temperature;BMP_pressure;BME280_temperature;BME280_humidity;BME280_pressure;Samples;Min_cycle;Max_cycle;Signal;HPM_P1;HPM_P2
2021/07/31 00:00:18;;;;;;;0.10;0.10;;;;;;;15.76;93.44;99830.28;5021979;28;20111;-89
2021/07/31 00:02:53;;;;;;;0.13;0.13;;;;;;;15.84;92.39;99828.63;5029834;28;20057;-89
2021/07/31 00:05:27;;;;;;;0.10;0.10;;;;;;;15.71;93.73;99821.44;5032101;28;20045;-90
2021/07/31 00:08:00;;;;;;;0.10;0.10;;;;;;;15.72;93.45;99821.09;5035140;28;20061;-89
2021/07/31 00:10:36;;;;;;;0.10;0.10;;;;;;;15.71;94.66;99815.97;5027561;28;20064;-88
2021/07/31 00:13:09;;;;;;;0.10;0.10;;;;;;;15.74;94.11;99812.53;5031007;28;20042;-88
2021/07/31 00:15:43;;;;;;;0.20;0.20;;;;;;;15.76;94.76;99818.50;5031291;28;20048;-90
2021/07/31 00:18:16;;;;;;;0.10;0.10;;;;;;;15.70;95.22;99819.84;5030939;28;20052;-90
2021/07/31 00:20:51;;;;;;;0.20;0.10;;;;;;;15.61;95.78;99817.16;5032110;28;20046;-90
2021/07/31 00:23:26;;;;;;;0.10;0.10;;;;;;;15.62;95.18;99825.06;5030938;28;20391;-87
2021/07/31 00:26:00;;;;;;;0.10;0.10;;;;;;;15.57;94.15;99829.94;5031163;28;20041;-88
2021/07/31 00:28:28;;;;;;;0.10;0.10;;;;;;;15.48;95.52;99839.03;5030093;28;20058;-89
2021/07/31 00:31:01;;;;;;;0.17;0.17;;;;;;;15.47;94.36;99847.59;5032195;28;20041;-89
2021/07/31 00:33:35;;;;;;;0.20;0.20;;;;;;;15.36;95.54;99854.63;5035492;28;20386;-89
2021/07/31 00:36:10;;;;;;;0.10;0.10;;;;;;;15.42;95.04;99845.84;5036080;28;20046;-89
2021/07/31 00:38:43;;;;;;;0.10;0.10;;;;;;;15.18;95.69;99853.88;5035058;28;20049;-87
2021/07/31 00:41:17;;;;;;;0.10;0.10;;;;;;;15.16;95.62;99843.25;5029915;28;20497;-89
2021/07/31 00:43:50;;;;;;;0.10;0.10;;;;;;;15.37;93.52;99837.00;5038253;28;20056;-89
2021/07/31 00:46:24;;;;;;;0.10;0.10;;;;;;;15.25;94.90;99835.81;5048807;28;20049;-88
2021/07/31 00:48:58;;;;;;;0.10;0.10;;;;;;;15.24;94.12;99836.13;5033922;28;20056;-88
2021/07/31 00:51:34;;;;;;;0.20;0.20;;;;;;;15.12;94.50;99839.56;5029821;28;20050;-89
2021/07/31 00:54:08;;;;;;;0.20;0.20;;;;;;;15.07;95.24;99845.28;5043818;28;20049;-88
2021/07/31 00:56:43;;;;;;;0.20;0.20;;;;;;;15.08;95.18;99844.13;5031520;28;20045;-88
2021/07/31 00:59:16;;;;;;;0.10;0.10;;;;;;;15.08;96.10;99842.19;5033128;28;20049;-88
2021/07/31 01:01:50;;;;;;;0.20;0.20;;;;;;;15.11;95.43;99841.53;5030704;28;20083;-89
2021/07/31 01:04:23;;;;;;;0.17;0.17;;;;;;;15.14;96.07;99840.84;5034903;28;20889;-88
2021/07/31 01:06:58;;;;;;;0.10;0.10;;;;;;;15.11;96.61;99844.25;5030679;28;20045;-89
2021/07/31 01:09:31;;;;;;;0.10;0.10;;;;;;;15.13;96.66;99842.00;5033357;28;20522;-88
2021/07/31 01:12:07;;;;;;;0.10;0.10;;;;;;;15.10;97.06;99850.88;5032936;28;20438;-89
2021/07/31 01:14:41;;;;;;;0.10;0.10;;;;;;;15.12;96.68;99845.06;5027821;28;20057;-88
2021/07/31 01:17:14;;;;;;;0.10;0.10;;;;;;;15.11;97.13;99846.22;5033445;28;20057;-89
2021/07/31 01:19:48;;;;;;;0.10;0.10;;;;;;;15.11;96.71;99836.03;5035230;28;20042;-90
2021/07/31 01:22:22;;;;;;;0.20;0.20;;;;;;;15.14;96.37;99840.06;5028888;28;20061;-89
2021/07/31 01:25:01;;;;;;;0.20;0.20;;;;;;;15.11;96.56;99832.50;5030474;28;20049;-88
2021/07/31 01:27:35;;;;;;;0.10;0.10;;;;;;;15.05;96.20;99837.38;5034019;28;20379;-89
2021/07/31 01:30:09;;;;;;;0.10;0.10;;;;;;;15.01;96.52;99821.91;5027432;28;20501;-89
2021/07/31 01:32:43;;;;;;;0.10;0.10;;;;;;;15.07;96.12;99832.34;5032621;28;20521;-89
2021/07/31 01:35:17;;;;;;;0.10;0.10;;;;;;;14.98;96.96;99826.13;5033411;28;20064;-87
2021/07/31 01:37:52;;;;;;;0.15;0.15;;;;;;;15.00;97.19;99823.88;5033023;28;20053;-88
2021/07/31 01:40:25;;;;;;;0.15;0.15;;;;;;;14.98;95.20;99826.13;5033095;28;20045;-89
2021/07/31 01:42:59;;;;;;;0.10;0.10;;;;;;;15.01;96.39;99811.78;5031286;28;20386;-88
2021/07/31 01:45:32;;;;;;;0.10;0.10;;;;;;;15.03;96.04;99819.66;5032930;28;20038;-87
2021/07/31 01:48:06;;;;;;;0.13;0.13;;;;;;;14.98;96.61;99820.63;5014605;28;20498;-85
2021/07/31 01:50:42;;;;;;;0.10;0.10;;;;;;;14.91;96.65;99812.94;5031956;28;20044;-89
2021/07/31 01:53:17;;;;;;;0.10;0.10;;;;;;;14.94;96.33;99820.50;5031050;28;20048;-88
2021/07/31 01:55:54;;;;;;;0.10;0.10;;;;;;;14.94;95.86;99830.66;5032521;28;20053;-89
2021/07/31 01:58:29;;;;;;;0.10;0.10;;;;;;;14.90;96.45;99833.25;5031857;28;20045;-89
2021/07/31 02:01:04;;;;;;;0.20;0.17;;;;;;;14.89;96.16;99817.94;5030948;28;20462;-88
2021/07/31 02:03:39;;;;;;;0.10;0.10;;;;;;;14.87;96.85;99827.63;5031984;28;20049;-88
2021/07/31 02:06:31;;;;;;;0.20;0.20;;;;;;;14.81;97.49;99824.28;5029235;28;20060;-88
2021/07/31 02:09:05;;;;;;;0.17;0.17;;;;;;;14.83;97.47;99816.53;5032670;28;20058;-89
2021/07/31 02:11:40;;;;;;;0.10;0.10;;;;;;;14.77;97.34;99818.63;5030725;28;20053;-88
2021/07/31 02:14:13;;;;;;;0.10;0.10;;;;;;;14.84;96.35;99815.38;5033157;28;20052;-87
2021/07/31 02:16:53;;;;;;;0.20;0.20;;;;;;;14.77;96.13;99804.94;5046660;28;20053;-89
2021/07/31 02:19:21;;;;;;;0.13;0.13;;;;;;;14.78;96.15;99806.56;5032220;28;20054;-88
2021/07/31 02:22:01;;;;;;;0.20;0.20;;;;;;;14.71;96.53;99821.91;5029112;28;20517;-87
2021/07/31 02:25:04;;;;;;;0.10;0.10;;;;;;;14.61;95.92;99812.91;5030673;28;20045;-89
2021/07/31 02:28:09;;;;;;;0.10;0.10;;;;;;;14.57;96.45;99801.00;5018680;28;20064;-88
2021/07/31 02:30:44;;;;;;;0.10;0.10;;;;;;;14.57;96.29;99813.84;5031464;28;20049;-88
2021/07/31 02:33:18;;;;;;;0.10;0.10;;;;;;;14.71;96.47;99808.22;5025525;28;20049;-89
2021/07/31 02:35:48;;;;;;;0.10;0.10;;;;;;;14.51;97.08;99813.25;5043568;28;20056;-87
2021/07/31 02:38:37;;;;;;;0.20;0.20;;;;;;;14.42;97.71;99807.00;5031345;28;20049;-88
2021/07/31 02:41:11;;;;;;;0.20;0.20;;;;;;;14.39;97.62;99808.47;5031467;28;20052;-85
2021/07/31 02:43:46;;;;;;;0.10;0.10;;;;;;;14.34;97.38;99805.91;5029454;28;20038;-86
2021/07/31 02:46:19;;;;;;;0.10;0.10;;;;;;;14.34;96.83;99808.63;5032363;28;20057;-88
2021/07/31 02:48:52;;;;;;;0.10;0.10;;;;;;;14.39;96.30;99791.22;5030772;28;20503;-89
2021/07/31 02:51:26;;;;;;;0.10;0.10;;;;;;;14.45;96.12;99795.41;5038056;28;20053;-87
2021/07/31 02:54:04;;;;;;;0.10;0.10;;;;;;;14.46;95.59;99797.00;5035362;28;20378;-88
2021/07/31 02:56:39;;;;;;;0.20;0.20;;;;;;;14.36;95.51;99795.44;5030522;28;20521;-86
2021/07/31 02:59:17;;;;;;;0.20;0.20;;;;;;;14.23;96.05;99796.44;5029416;28;20053;-86
2021/07/31 03:01:53;;;;;;;0.20;0.20;;;;;;;14.23;95.18;99788.22;5030732;28;20045;-87
2021/07/31 03:04:26;;;;;;;0.20;0.20;;;;;;;14.21;95.31;99795.94;5032766;28;20052;-86
2021/07/31 03:07:11;;;;;;;0.10;0.10;;;;;;;14.11;96.78;99797.09;5027697;28;20057;-88
2021/07/31 03:09:46;;;;;;;0.20;0.20;;;;;;;14.07;96.41;99804.34;5042265;28;20052;-88
2021/07/31 03:12:24;;;;;;;0.10;0.10;;;;;;;14.01;96.01;99789.25;5030252;28;20060;-89
2021/07/31 03:14:57;;;;;;;0.10;0.10;;;;;;;13.96;96.16;99795.66;5030786;28;20053;-88
2021/07/31 03:17:31;;;;;;;0.20;0.20;;;;;;;13.94;96.17;99781.53;5028497;28;20053;-88
2021/07/31 03:20:06;;;;;;;0.10;0.10;;;;;;;13.88;95.91;99785.53;5031225;28;20057;-88
2021/07/31 03:22:43;;;;;;;0.10;0.10;;;;;;;13.81;96.61;99790.69;5027169;28;20045;-88
2021/07/31 03:25:12;;;;;;;0.10;0.10;;;;;;;13.81;95.85;99772.38;5030542;28;20064;-87
2021/07/31 03:27:47;;;;;;;0.10;0.10;;;;;;;13.85;96.69;99792.50;5029089;28;20060;-88
2021/07/31 03:30:34;;;;;;;0.20;0.20;;;;;;;13.84;95.67;99781.88;5045218;28;20056;-88
2021/07/31 03:33:13;;;;;;;0.20;0.20;;;;;;;13.76;95.77;99789.75;5030456;28;20058;-88
2021/07/31 03:35:46;;;;;;;0.20;0.20;;;;;;;13.71;97.11;99791.84;5027688;28;20057;-87
2021/07/31 03:38:25;;;;;;;0.10;0.10;;;;;;;13.73;96.34;99790.41;5037947;28;20049;-87
2021/07/31 03:41:00;;;;;;;0.10;0.10;;;;;;;13.79;97.17;99793.75;5029952;28;20037;-88
2021/07/31 03:43:39;;;;;;;0.17;0.17;;;;;;;13.81;97.39;99794.25;5026412;28;20410;-88
2021/07/31 03:46:09;;;;;;;0.10;0.10;;;;;;;13.82;97.41;99781.38;5028217;28;20052;-88
2021/07/31 03:48:43;;;;;;;0.10;0.10;;;;;;;13.87;97.34;99790.22;5029534;28;20072;-88
2021/07/31 03:51:18;;;;;;;0.10;0.10;;;;;;;13.88;97.92;99788.28;5030871;28;20413;-84
2021/07/31 03:53:54;;;;;;;0.20;0.20;;;;;;;13.85;96.81;99770.59;5030760;28;20390;-88
2021/07/31 03:56:24;;;;;;;0.10;0.10;;;;;;;13.84;96.75;99777.19;5028979;28;20041;-87
2021/07/31 03:59:03;;;;;;;0.10;0.10;;;;;;;13.85;97.78;99781.56;5031257;28;20053;-88
2021/07/31 04:01:36;;;;;;;0.20;0.20;;;;;;;13.81;97.88;99782.50;5029070;28;20041;-88
2021/07/31 04:04:10;;;;;;;0.10;0.10;;;;;;;13.80;97.60;99778.19;5029458;28;20045;-87
2021/07/31 04:06:43;;;;;;;0.15;0.15;;;;;;;13.77;96.64;99783.16;5032332;28;20049;-87
2021/07/31 04:09:35;;;;;;;0.10;0.10;;;;;;;13.82;96.21;99784.13;5042815;28;20060;-86
2021/07/31 04:12:27;;;;;;;0.20;0.20;;;;;;;13.70;96.61;99779.28;5034107;28;20409;-87
2021/07/31 04:15:20;;;;;;;0.10;0.10;;;;;;;13.70;96.80;99777.38;5042484;28;20045;-88
2021/07/31 04:17:54;;;;;;;0.10;0.10;;;;;;;13.78;97.23;99776.56;5030816;28;20069;-88
2021/07/31 04:20:28;;;;;;;0.20;0.20;;;;;;;13.72;97.36;99766.91;5026051;28;20411;-88
2021/07/31 04:22:56;;;;;;;0.15;0.15;;;;;;;13.88;96.55;99775.41;5034459;28;20498;-87
2021/07/31 04:25:39;;;;;;;0.20;0.20;;;;;;;13.96;97.26;99773.78;5031594;28;20049;-87
2021/07/31 04:28:12;;;;;;;0.15;0.15;;;;;;;13.98;96.47;99768.81;5026323;28;21868;-88
2021/07/31 04:30:46;;;;;;;0.10;0.10;;;;;;;14.02;96.99;99758.03;5033670;28;20488;-88
2021/07/31 04:33:15;;;;;;;0.20;0.20;;;;;;;14.09;97.05;99778.28;5033079;28;20049;-88
2021/07/31 04:35:43;;;;;;;0.10;0.10;;;;;;;14.15;96.88;99772.63;5029762;28;20050;-89
2021/07/31 04:38:16;;;;;;;0.13;0.13;;;;;;;14.22;96.74;99772.94;5033682;28;20053;-88
2021/07/31 04:40:50;;;;;;;0.15;0.15;;;;;;;14.14;96.83;99766.38;5033064;28;20418;-87
2021/07/31 04:43:23;;;;;;;0.20;0.20;;;;;;;14.18;96.99;99774.72;5035004;28;20045;-89
2021/07/31 04:46:00;;;;;;;0.13;0.13;;;;;;;14.15;96.48;99761.69;5040473;28;20053;-85
2021/07/31 04:48:33;;;;;;;0.20;0.20;;;;;;;14.26;95.76;99766.47;5030795;28;20046;-89
2021/07/31 04:51:03;;;;;;;0.10;0.10;;;;;;;14.16;95.77;99752.34;5035412;28;20393;-89
2021/07/31 04:53:37;;;;;;;0.20;0.20;;;;;;;14.14;95.37;99758.16;5031938;28;20038;-89
2021/07/31 04:56:10;;;;;;;0.10;0.10;;;;;;;14.04;95.57;99762.03;5034838;28;20060;-88
2021/07/31 04:58:43;;;;;;;0.10;0.10;;;;;;;13.95;95.88;99758.53;5032384;28;20049;-88
2021/07/31 05:01:13;;;;;;;0.20;0.20;;;;;;;13.88;95.24;99739.03;5034469;28;20466;-88
2021/07/31 05:03:41;;;;;;;0.10;0.10;;;;;;;13.99;95.77;99758.66;5035182;28;20042;-87
2021/07/31 05:06:14;;;;;;;0.10;0.10;;;;;;;13.97;95.05;99756.25;5032404;28;20375;-88
2021/07/31 05:08:47;;;;;;;0.20;0.20;;;;;;;14.10;94.18;99760.72;5029786;28;20045;-88
2021/07/31 05:11:18;;;;;;;0.10;0.10;;;;;;;14.35;94.27;99752.78;5032976;28;20418;-87
2021/07/31 05:13:52;;;;;;;0.10;0.10;;;;;;;14.38;95.12;99754.84;5033233;28;20501;-89
2021/07/31 05:16:28;;;;;;;0.10;0.10;;;;;;;14.37;94.00;99761.44;5033259;28;20421;-86
2021/07/31 05:19:02;;;;;;;0.17;0.17;;;;;;;14.35;93.66;99760.16;5027836;28;20052;-88
2021/07/31 05:21:36;;;;;;;0.20;0.20;;;;;;;14.32;94.41;99764.38;5033532;28;20065;-87
2021/07/31 05:24:09;;;;;;;0.10;0.10;;;;;;;14.48;92.57;99761.88;5031843;28;20053;-87
2021/07/31 05:26:43;;;;;;;0.20;0.20;;;;;;;14.72;91.52;99758.59;5026189;28;20045;-89
2021/07/31 05:29:16;;;;;;;0.20;0.20;;;;;;;14.57;91.62;99762.66;5031760;28;20051;-88
2021/07/31 05:31:50;;;;;;;0.20;0.20;;;;;;;14.57;93.34;99773.63;5030695;28;20500;-87
2021/07/31 05:34:24;;;;;;;0.10;0.10;;;;;;;14.58;92.80;99764.28;5033488;28;20050;-88
2021/07/31 05:36:57;;;;;;;0.10;0.10;;;;;;;14.52;91.65;99760.09;5033273;28;20061;-87
2021/07/31 05:39:33;;;;;;;0.20;0.20;;;;;;;14.49;92.25;99758.03;5030891;28;20046;-88
2021/07/31 05:42:06;;;;;;;0.20;0.20;;;;;;;14.61;90.98;99751.84;5032408;28;20498;-87
2021/07/31 05:44:40;;;;;;;0.20;0.20;;;;;;;14.61;92.13;99755.41;5029789;28;20053;-87
2021/07/31 05:47:14;;;;;;;0.20;0.20;;;;;;;14.64;89.23;99753.97;5027510;28;20046;-88
2021/07/31 05:49:47;;;;;;;0.10;0.10;;;;;;;14.70;90.87;99755.38;5031669;28;20038;-87
2021/07/31 05:52:24;;;;;;;0.15;0.15;;;;;;;14.75;89.72;99751.66;5033716;28;20068;-89
2021/07/31 05:54:58;;;;;;;;;;;;;;;14.72;89.44;99755.03;5034419;28;20042;-88
2021/07/31 05:57:31;;;;;;;0.20;0.20;;;;;;;14.78;90.64;99749.03;5026645;28;19921;-88
2021/07/31 06:00:05;;;;;;;0.20;0.20;;;;;;;14.72;90.70;99753.13;5033985;28;20048;-88
2021/07/31 06:02:44;;;;;;;0.20;0.20;;;;;;;14.74;90.53;99750.84;5026228;28;20053;-88
2021/07/31 06:05:17;;;;;;;0.10;0.10;;;;;;;14.75;90.15;99751.66;5031135;28;20501;-87
2021/07/31 06:07:50;;;;;;;0.10;0.10;;;;;;;14.78;87.77;99748.25;5026210;28;20049;-87
2021/07/31 06:10:24;;;;;;;0.20;0.20;;;;;;;14.89;88.89;99741.25;5029482;28;20041;-86
2021/07/31 06:12:57;;;;;;;0.15;0.15;;;;;;;14.92;90.13;99754.28;5031452;28;20517;-87
2021/07/31 06:15:30;;;;;;;0.10;0.10;;;;;;;14.91;89.60;99743.66;5028327;28;20490;-87
2021/07/31 06:18:05;;;;;;;0.10;0.10;;;;;;;14.86;88.93;99746.56;5031804;28;20053;-88
2021/07/31 06:20:38;;;;;;;0.20;0.20;;;;;;;14.93;87.44;99742.19;5033484;28;20045;-88
2021/07/31 06:23:11;;;;;;;0.20;0.20;;;;;;;14.79;88.84;99747.13;5028283;28;20069;-87
2021/07/31 06:25:44;;;;;;;0.20;0.20;;;;;;;14.86;87.16;99744.66;5037219;28;20054;-86
2021/07/31 06:28:17;;;;;;;0.10;0.10;;;;;;;14.87;86.83;99737.22;5031492;28;20064;-88
2021/07/31 06:30:50;;;;;;;0.10;0.10;;;;;;;14.88;87.97;99750.59;5029779;28;20041;-87
2021/07/31 06:33:25;;;;;;;0.10;0.10;;;;;;;14.87;86.75;99754.47;5030247;28;20060;-84
2021/07/31 06:35:59;;;;;;;0.10;0.10;;;;;;;15.07;86.68;99743.88;5033693;28;20060;-86
2021/07/31 06:38:27;;;;;;;0.10;0.10;;;;;;;14.99;86.57;99739.25;5043412;28;20048;-87
2021/07/31 06:41:00;;;;;;;0.17;0.17;;;;;;;15.00;84.64;99740.84;5031310;28;20049;-85
2021/07/31 06:43:34;;;;;;;0.10;0.10;;;;;;;14.95;88.15;99741.84;5028814;28;20042;-85
2021/07/31 06:46:11;;;;;;;0.10;0.10;;;;;;;15.02;84.71;99744.88;5028243;28;20064;-85
2021/07/31 06:48:46;;;;;;;0.10;0.10;;;;;;;14.91;86.53;99730.75;5029658;28;20045;-87
2021/07/31 06:51:16;;;;;;;0.20;0.20;;;;;;;15.08;86.60;99731.75;5030607;28;20053;-89
2021/07/31 06:53:45;;;;;;;0.20;0.20;;;;;;;15.22;83.97;99737.81;5026364;28;20052;-87
2021/07/31 06:56:13;;;;;;;0.20;0.20;;;;;;;15.34;84.80;99725.28;5026119;28;20050;-84
2021/07/31 06:58:46;;;;;;;0.10;0.10;;;;;;;15.32;84.25;99736.59;5031892;28;20052;-88
2021/07/31 07:01:20;;;;;;;0.10;0.10;;;;;;;15.40;82.56;99727.50;5026175;28;20049;-86
2021/07/31 07:03:58;;;;;;;0.10;0.10;;;;;;;15.44;80.62;99739.41;5029083;28;20049;-88
2021/07/31 07:06:32;;;;;;;0.20;0.20;;;;;;;15.61;83.25;99735.69;5021940;28;20049;-86
2021/07/31 07:09:05;;;;;;;0.10;0.10;;;;;;;15.61;82.04;99727.47;5026575;28;20050;-89
2021/07/31 07:12:07;;;;;;;0.10;0.10;;;;;;;15.75;83.33;99724.41;5031247;28;20044;-87
2021/07/31 07:14:42;;;;;;;0.20;0.20;;;;;;;15.72;82.32;99724.31;5028898;28;20048;-88
2021/07/31 07:17:15;;;;;;;0.10;0.10;;;;;;;15.85;80.55;99733.41;5031166;28;20045;-89
2021/07/31 07:19:50;;;;;;;0.13;0.13;;;;;;;15.91;81.52;99735.59;5026150;28;20483;-89
2021/07/31 07:22:23;;;;;;;0.20;0.20;;;;;;;15.93;81.24;99719.59;5029576;28;20490;-89
2021/07/31 07:24:56;;;;;;;0.10;0.10;;;;;;;16.00;81.71;99729.22;5022901;28;20417;-86
2021/07/31 07:27:29;;;;;;;0.15;0.15;;;;;;;16.12;80.58;99727.28;5025689;28;20084;-89
2021/07/31 07:30:03;;;;;;;0.20;0.20;;;;;;;16.54;79.55;99725.50;5022522;28;20065;-88
2021/07/31 07:32:36;;;;;;;0.10;0.10;;;;;;;16.61;79.77;99722.97;5023591;28;20415;-87
2021/07/31 07:35:17;;;;;;;0.10;0.10;;;;;;;16.47;77.67;99720.56;5030991;28;20050;-88
2021/07/31 07:37:45;;;;;;;0.13;0.13;;;;;;;16.43;76.96;99736.13;4963951;28;20482;-89
2021/07/31 07:40:21;;;;;;;0.20;0.20;;;;;;;15.91;78.40;99688.13;5001598;28;20065;-86
2021/07/31 07:42:54;;;;;;;0.10;0.10;;;;;;;16.26;77.97;99718.72;5011410;28;20056;-88
2021/07/31 07:45:27;;;;;;;0.10;0.10;;;;;;;16.23;77.14;99718.63;5006354;28;20064;-85
2021/07/31 07:47:57;;;;;;;0.10;0.10;;;;;;;16.41;77.20;99725.50;5007349;28;20056;-86
2021/07/31 07:50:32;;;;;;;0.10;0.10;;;;;;;16.67;79.67;99710.63;5006343;28;20050;-86
2021/07/31 07:53:05;;;;;;;0.10;0.10;;;;;;;17.02;76.97;99718.38;5007883;28;20050;-87
2021/07/31 07:55:38;;;;;;;0.20;0.20;;;;;;;16.95;76.11;99713.47;5008122;28;20121;-88
2021/07/31 07:58:11;;;;;;;0.20;0.20;;;;;;;16.82;74.77;99717.34;5016281;28;20409;-84
2021/07/31 08:00:45;;;;;;;0.10;0.10;;;;;;;16.66;73.54;99718.03;5007637;28;20053;-87
2021/07/31 08:03:19;;;;;;;0.20;0.20;;;;;;;16.62;77.81;99719.88;5013496;28;20060;-85
2021/07/31 08:05:54;;;;;;;0.15;0.15;;;;;;;16.59;76.64;99719.78;5007113;28;20057;-86
2021/07/31 08:08:28;;;;;;;0.20;0.20;;;;;;;16.62;76.77;99719.88;5007891;28;20068;-84
2021/07/31 08:11:02;;;;;;;0.10;0.10;;;;;;;16.50;77.20;99719.88;5008418;28;20057;-85
2021/07/31 08:13:35;;;;;;;0.10;0.10;;;;;;;16.46;77.33;99718.97;5018158;28;20061;-87
2021/07/31 08:16:10;;;;;;;0.20;0.20;;;;;;;16.36;77.74;99730.41;5004649;28;20819;-81
2021/07/31 08:18:43;;;;;;;0.10;0.10;;;;;;;16.24;76.99;99712.78;5007332;28;20056;-87
2021/07/31 08:21:12;;;;;;;0.10;0.10;;;;;;;16.42;76.17;99721.59;5012390;28;20068;-88
2021/07/31 08:23:46;;;;;;;0.20;0.20;;;;;;;16.29;75.88;99712.53;5007844;28;20057;-89
2021/07/31 08:26:20;;;;;;;0.20;0.20;;;;;;;16.22;76.64;99715.06;5012253;28;20052;-86
2021/07/31 08:28:54;;;;;;;0.10;0.10;;;;;;;16.22;77.07;99709.56;5007392;28;20477;-87
2021/07/31 08:31:30;;;;;;;0.10;0.10;;;;;;;16.03;77.47;99728.53;5006855;28;20061;-87
2021/07/31 08:33:58;;;;;;;0.10;0.10;;;;;;;16.01;79.09;99733.56;5005663;28;20049;-88
2021/07/31 08:36:34;;;;;;;0.10;0.10;;;;;;;15.67;80.23;99736.28;4993703;28;20053;-88
2021/07/31 08:39:09;;;;;;;0.10;0.10;;;;;;;15.34;84.62;99742.53;5003674;28;20053;-87
2021/07/31 08:41:46;;;;;;;0.10;0.10;;;;;;;15.10;86.54;99737.72;5008048;28;20053;-87
2021/07/31 08:44:19;;;;;;;0.10;0.10;;;;;;;14.95;87.37;99739.91;5011547;28;20058;-86
2021/07/31 08:46:55;;;;;;;0.10;0.10;;;;;;;14.82;88.61;99726.47;5007463;28;20062;-88
2021/07/31 08:49:26;;;;;;;0.10;0.10;;;;;;;14.92;87.81;99737.03;5009093;28;20060;-87
2021/07/31 08:52:04;;;;;;;0.10;0.10;;;;;;;14.81;87.21;99731.16;5008593;28;20060;-88
2021/07/31 08:54:41;;;;;;;0.20;0.20;;;;;;;14.96;89.03;99746.22;5011568;28;20053;-88
2021/07/31 08:57:18;;;;;;;0.10;0.10;;;;;;;14.94;89.07;99738.31;5009298;28;20061;-87
2021/07/31 08:59:56;;;;;;;0.15;0.15;;;;;;;15.00;87.14;99732.63;5009345;28;20065;-88
2021/07/31 09:02:41;;;;;;;0.20;0.20;;;;;;;15.11;86.30;99723.69;5011697;28;20054;-88
2021/07/31 09:05:11;;;;;;;0.10;0.10;;;;;;;15.43;85.94;99739.75;5020211;28;20054;-87
2021/07/31 09:07:59;;;;;;;0.10;0.10;;;;;;;15.66;86.54;99731.94;5010752;28;20056;-88
2021/07/31 09:10:34;;;;;;;0.20;0.20;;;;;;;15.97;85.85;99727.94;5008346;28;20054;-87
2021/07/31 09:13:09;;;;;;;0.10;0.10;;;;;;;16.22;83.87;99725.25;5034076;28;20049;-90
2021/07/31 09:15:39;;;;;;;0.15;0.15;;;;;;;16.44;82.85;99730.28;5017117;28;20654;-88
2021/07/31 09:18:25;;;;;;;0.10;0.10;;;;;;;16.61;83.08;99722.97;5012632;28;20052;-88
2021/07/31 09:21:12;;;;;;;0.10;0.10;;;;;;;16.82;80.96;99722.81;5012183;28;20049;-88
2021/07/31 09:23:49;;;;;;;0.10;0.10;;;;;;;16.84;82.22;99715.84;5013697;28;20053;-88
2021/07/31 09:26:20;;;;;;;0.20;0.20;;;;;;;16.78;81.04;99713.72;5014018;28;20053;-87
2021/07/31 09:28:59;;;;;;;0.10;0.10;;;;;;;16.51;82.79;99715.19;5017150;28;20057;-88
2021/07/31 09:31:39;;;;;;;0.10;0.10;;;;;;;16.41;81.69;99714.50;5007192;28;20053;-87
2021/07/31 09:34:24;;;;;;;0.10;0.10;;;;;;;16.32;80.75;99705.56;5009788;28;20060;-86
2021/07/31 09:37:06;;;;;;;0.20;0.20;;;;;;;16.45;82.90;99722.88;5001181;28;20817;-88
2021/07/31 09:39:52;;;;;;;0.20;0.20;;;;;;;16.79;81.47;99710.59;5007559;28;20057;-89
2021/07/31 09:42:32;;;;;;;0.20;0.20;;;;;;;17.01;79.42;99714.00;5005948;28;20509;-87
2021/07/31 09:45:09;;;;;;;0.10;0.10;;;;;;;16.66;77.75;99720.78;5006889;28;20058;-87
2021/07/31 09:47:59;;;;;;;0.10;0.10;;;;;;;16.87;77.63;99708.06;5008027;28;20045;-87
2021/07/31 09:50:37;;;;;;;0.20;0.20;;;;;;;16.99;78.41;99708.06;5018567;28;20050;-89
2021/07/31 09:53:11;;;;;;;0.17;0.17;;;;;;;17.18;78.31;99707.47;5007273;28;20049;-88
2021/07/31 09:55:46;;;;;;;0.20;0.20;;;;;;;17.00;76.87;99706.94;5013070;28;20057;-89
2021/07/31 09:58:23;;;;;;;0.20;0.20;;;;;;;16.96;77.00;99708.78;5006118;28;20060;-90
2021/07/31 10:01:15;;;;;;;0.20;0.20;;;;;;;17.14;78.33;99695.56;5013961;28;20061;-88
2021/07/31 10:03:43;;;;;;;0.10;0.10;;;;;;;17.19;78.97;99700.00;5008530;28;20046;-87
2021/07/31 10:06:17;;;;;;;0.10;0.10;;;;;;;17.27;77.95;99699.84;5014919;28;20792;-88
2021/07/31 10:08:45;;;;;;;0.20;0.20;;;;;;;17.27;78.61;99677.84;5005676;28;20081;-87
2021/07/31 10:11:15;;;;;;;0.10;0.10;;;;;;;17.17;76.25;99692.91;5006745;28;20058;-86
2021/07/31 10:13:51;;;;;;;0.10;0.10;;;;;;;17.16;75.24;99694.03;5016485;28;20065;-88
2021/07/31 10:16:24;;;;;;;0.10;0.10;;;;;;;17.41;77.58;99684.91;5010241;28;21184;-88
2021/07/31 10:18:59;;;;;;;0.10;0.10;;;;;;;17.45;74.19;99678.34;5013478;28;20058;-89
2021/07/31 10:21:46;;;;;;;0.20;0.20;;;;;;;17.86;72.31;99672.75;5012105;28;20057;-88
2021/07/31 10:24:20;;;;;;;0.20;0.20;;;;;;;17.97;72.06;99673.84;5009584;28;20057;-86
2021/07/31 10:27:22;;;;;;;0.20;0.20;;;;;;;18.31;72.46;99668.78;5007722;28;20061;-88
2021/07/31 10:29:57;;;;;;;0.15;0.15;;;;;;;18.61;71.13;99671.03;4982238;28;20061;-88
2021/07/31 10:32:43;;;;;;;0.10;0.10;;;;;;;18.47;71.42;99670.72;5011665;28;20060;-87
2021/07/31 10:35:34;;;;;;;0.10;0.10;;;;;;;18.45;68.19;99664.75;5008290;28;21157;-89
2021/07/31 10:38:10;;;;;;;0.10;0.10;;;;;;;18.02;69.71;99653.50;5001741;28;20064;-90
2021/07/31 10:40:46;;;;;;;0.20;0.20;;;;;;;17.85;70.48;99654.63;5009520;28;20068;-89
2021/07/31 10:43:17;;;;;;;0.10;0.10;;;;;;;17.53;71.23;99664.81;5006053;28;20046;-86
2021/07/31 10:46:20;;;;;;;0.10;0.10;;;;;;;17.36;69.77;99655.72;5005930;28;20088;-88
2021/07/31 10:48:49;;;;;;;0.10;0.10;;;;;;;17.22;71.68;99669.88;5014416;28;20068;-89
2021/07/31 10:51:51;;;;;;;0.20;0.20;;;;;;;17.05;71.20;99659.16;5024174;28;20045;-89
2021/07/31 10:54:19;;;;;;;0.10;0.10;;;;;;;17.14;72.15;99662.56;5029177;28;20049;-90
2021/07/31 10:56:58;;;;;;;0.10;0.10;;;;;;;17.19;71.11;99664.25;5026890;28;20052;-90
2021/07/31 10:59:33;;;;;;;0.10;0.10;;;;;;;17.65;69.31;99660.03;5042910;28;20061;-90
2021/07/31 11:02:36;;;;;;;0.20;0.20;;;;;;;18.34;69.85;99648.00;5020530;28;20050;-90
2021/07/31 11:05:09;;;;;;;0.10;0.10;;;;;;;18.65;67.60;99629.78;5041647;28;20053;-89
2021/07/31 11:08:10;;;;;;;0.10;0.10;;;;;;;19.09;68.08;99615.78;5026632;28;20057;-91
2021/07/31 11:10:44;;;;;;;0.20;0.20;;;;;;;19.34;62.95;99623.75;5025699;28;20053;-90
2021/07/31 11:13:52;;;;;;;0.20;0.20;;;;;;;19.87;65.88;99634.16;5021401;28;20053;-91
2021/07/31 11:16:27;;;;;;;0.10;0.10;;;;;;;19.44;62.92;99625.88;5028923;28;20041;-89
2021/07/31 11:19:02;;;;;;;0.10;0.10;;;;;;;19.14;62.98;99631.22;5025557;28;20057;-87
2021/07/31 11:21:32;;;;;;;0.10;0.10;;;;;;;19.05;65.08;99645.25;5028094;28;20045;-88
2021/07/31 11:24:03;;;;;;;0.10;0.10;;;;;;;19.00;64.59;99628.97;5025565;28;20049;-88
2021/07/31 11:26:40;;;;;;;0.20;0.20;;;;;;;18.47;63.55;99634.91;5027488;28;20041;-89
2021/07/31 11:29:10;;;;;;;0.10;0.10;;;;;;;18.26;68.06;99640.72;5024995;28;20064;-88
2021/07/31 11:31:56;;;;;;;0.10;0.10;;;;;;;18.22;68.99;99639.84;5025870;28;20041;-87
2021/07/31 11:34:40;;;;;;;0.20;0.20;;;;;;;18.69;67.10;99627.91;5024307;28;20052;-90
2021/07/31 11:37:16;;;;;;;0.10;0.10;;;;;;;18.80;65.05;99633.66;5026397;28;20315;-89
2021/07/31 11:39:49;;;;;;;0.20;0.20;;;;;;;18.64;66.60;99634.53;5022496;28;20068;-89
2021/07/31 11:42:25;;;;;;;0.13;0.13;;;;;;;18.73;66.01;99615.00;5024788;28;20384;-89
2021/07/31 11:45:03;;;;;;;0.17;0.17;;;;;;;18.66;67.76;99637.69;5024340;28;20053;-89
2021/07/31 11:47:46;;;;;;;0.20;0.20;;;;;;;18.49;65.85;99640.84;5019326;28;20057;-90
2021/07/31 11:50:19;;;;;;;0.10;0.10;;;;;;;18.56;67.93;99635.53;5028559;28;20053;-89
2021/07/31 11:52:47;;;;;;;0.10;0.10;;;;;;;18.56;68.05;99638.28;5025031;28;20053;-90
2021/07/31 11:55:24;;;;;;;0.10;0.10;;;;;;;18.63;67.26;99641.19;5025204;28;20053;-88
2021/07/31 11:57:58;;;;;;;0.10;0.10;;;;;;;18.64;69.57;99630.94;5021823;28;20050;-89
2021/07/31 12:00:27;;;;;;;0.10;0.10;;;;;;;19.19;68.32;99637.25;5026399;28;20068;-89
2021/07/31 12:02:56;;;;;;;0.10;0.10;;;;;;;19.06;67.44;99641.31;5020382;28;20049;-91
2021/07/31 12:05:39;;;;;;;0.20;0.20;;;;;;;19.01;68.06;99627.81;5021052;28;20049;-87
2021/07/31 12:08:13;;;;;;;0.20;0.20;;;;;;;18.99;65.44;99630.94;5028436;28;20060;-89
2021/07/31 12:10:47;;;;;;;0.20;0.20;;;;;;;18.83;66.35;99630.97;5026972;28;20448;-89
2021/07/31 12:13:31;;;;;;;0.10;0.10;;;;;;;18.68;65.27;99621.63;5023827;28;20049;-89